1869 Hurricane NOT_NAMED (1869251N18326)


IBTrACS version v04r00. Visit IBTrACS website for data access.
Please direct all questions to the IBTrACS Q and A forum

Storm track - Intensity - Wind Radii - Intensity Data - Source Data - All data

Summary Information

Storm ID 1869251N18326
Start Sep 7 12Z
Max Intensity 65 kt (Sep 13 18Z), 992 mb (Sep 16 00Z)
End Sep 17 12Z
ATCF IDs
Track status Best track data.

Storm track plot

Map of storm track

Intensity plots

Map of storm track

Radial wind information

No radial wind information for this storm


Position and Intensity Table

BASIN ISO_TIME_________ NATURE LAT LON MLC WIND MLC PRES
degrees north degrees east kts mb
NA 1869-09-07 12:00:00 TS 18.30 -33.70 30
NA 15:00:00 TS 18.51 -34.06 30
NA 18:00:00 TS 18.70 -34.40 30
NA 21:00:00 TS 18.85 -34.70 30
NA 1869-09-08 00:00:00 TS 19.00 -35.00 30
NA 03:00:00 TS 19.20 -35.35 30
NA 06:00:00 TS 19.40 -35.70 30
NA 09:00:00 TS 19.55 -36.00 32
NA 12:00:00 TS 19.70 -36.30 35
NA 15:00:00 TS 19.90 -36.65 35
NA 18:00:00 TS 20.10 -37.00 35
NA 21:00:00 TS 20.25 -37.31 35
NA 1869-09-09 00:00:00 TS 20.40 -37.60 35
NA 03:00:00 TS 20.60 -37.90 35
NA 06:00:00 TS 20.80 -38.20 35
NA 09:00:00 TS 20.95 -38.50 37
NA 12:00:00 TS 21.10 -38.80 40
NA 15:00:00 TS 21.30 -39.10 40
NA 18:00:00 TS 21.50 -39.40 40
NA 21:00:00 TS 21.65 -39.71 40
NA 1869-09-10 00:00:00 TS 21.80 -40.00 40
NA 03:00:00 TS 21.99 -40.27 42
NA 06:00:00 TS 22.20 -40.50 45
NA 09:00:00 TS 22.39 -40.70 45
NA 12:00:00 TS 22.60 -40.90 45
NA 15:00:00 TS 22.85 -41.15 45
NA 18:00:00 TS 23.10 -41.40 45
NA 21:00:00 TS 23.29 -41.61 47
NA 1869-09-11 00:00:00 TS 23.50 -41.80 50
NA 03:00:00 TS 23.79 -42.01 50
NA 06:00:00 TS 24.10 -42.20 50
NA 09:00:00 TS 24.36 -42.37 50
NA 12:00:00 TS 24.60 -42.50 50
NA 15:00:00 TS 24.85 -42.62 50
NA 18:00:00 TS 25.10 -42.70 50
NA 21:00:00 TS 25.33 -42.75 50
NA 1869-09-12 00:00:00 TS 25.60 -42.80 50
NA 03:00:00 TS 25.99 -42.91 50
NA 06:00:00 TS 26.40 -43.00 50
NA 09:00:00 TS 26.75 -43.02 52
NA 12:00:00 TS 27.10 -43.00 55
NA 15:00:00 TS 27.50 -43.00 55
NA 18:00:00 TS 27.90 -43.00 55
NA 21:00:00 TS 28.24 -43.00 57
NA 1869-09-13 00:00:00 TS 28.60 -43.00 60
NA 03:00:00 TS 29.03 -43.01 60
NA 06:00:00 TS 29.50 -43.00 60
NA 09:00:00 TS 29.95 -42.95 60
NA 12:00:00 TS 30.40 -42.90 60
NA 15:00:00 TS 30.85 -42.90 62
NA 18:00:00 TS 31.30 -42.90 65
NA 21:00:00 TS 31.75 -42.87 65
NA 1869-09-14 00:00:00 TS 32.20 -42.80 65
NA 03:00:00 TS 32.65 -42.66 65
NA 06:00:00 TS 33.10 -42.50 65
NA 09:00:00 TS 33.56 -42.40 65
NA 12:00:00 TS 34.00 -42.30 65
NA 15:00:00 TS 34.41 -42.16 65
NA 18:00:00 TS 34.80 -42.00 65
NA 21:00:00 TS 35.19 -41.86 65
NA 1869-09-15 00:00:00 TS 35.60 -41.70 65
NA 03:00:00 TS 36.04 -41.51 65
NA 06:00:00 TS 36.50 -41.30 65
NA 09:00:00 TS 36.95 -41.11 65
NA 12:00:00 TS 37.40 -40.90 65
NA 15:00:00 TS 37.85 -40.61 65
NA 18:00:00 TS 38.30 -40.30 65
NA 21:00:00 TS 38.70 -40.01 65
NA 1869-09-16 00:00:00 TS 39.20 -39.70 65 992
NA 03:00:00 TS 39.90 -39.45 65
NA 06:00:00 TS 40.70 -39.00 65
NA 09:00:00 TS 41.45 -38.19 65
NA 12:00:00 TS 42.20 -37.00 65
NA 15:00:00 TS 42.95 -35.46 62
NA 18:00:00 TS 43.70 -33.70 60
NA 21:00:00 TS 44.35 -31.89 57
NA 1869-09-17 00:00:00 TS 45.20 -30.20 55
NA 03:00:00 TS 46.54 -28.83 52
NA 06:00:00 TS 48.10 -27.60 50
NA 09:00:00 TS 49.59 -26.34 47
NA 12:00:00 ET 51.00 -25.00 45

Source Information

Agency Information
USA
TOKYO
CMA
HKO
NEWDELHI
REUNION
BOM
NADI
WELLINGTON
DS824
TD9636
TD9635
NEUMANN
MLC

All available IBTrACS Data

SEASON BASIN SUBBASIN ISO_TIME_________ NATURE LAT LON DIST2LAND LANDFALL IFLAG USA SSHS MLC LAT MLC LON MLC CLASS MLC WIND MLC PRES STORM SPEED STORM DIR
Year degrees north degrees east km km 1 degrees north degrees east kts mb kts degrees
1869 NA NA 1869-09-07 12:00:00 TS 18.30 -33.70 1760 1760 _____________O -1 18.30 -33.70 TD 30 8 302
1869 NA NA 15:00:00 TS 18.51 -34.06 1797 1795 _____________P -1 18.51 -34.06 TD 30 8 301
1869 NA NA 18:00:00 TS 18.70 -34.40 1824 1824 _____________O -1 18.70 -34.40 TD 30 7 299
1869 NA NA 21:00:00 TS 18.85 -34.70 1853 1851 _____________P -1 18.85 -34.70 TD 30 6 298
1869 NA NA 1869-09-08 00:00:00 TS 19.00 -35.00 1881 1881 _____________O -1 19.00 -35.00 TD 30 7 300
1869 NA NA 03:00:00 TS 19.20 -35.35 1908 1908 _____________P -1 19.20 -35.35 TD 30 8 301
1869 NA NA 06:00:00 TS 19.40 -35.70 1947 1947 _____________O -1 19.40 -35.70 TD 30 7 300
1869 NA NA 09:00:00 TS 19.55 -36.00 1977 1975 _____________P -1 19.55 -36.00 TD 32 6 298
1869 NA NA 12:00:00 TS 19.70 -36.30 2005 2005 _____________O -1 19.70 -36.30 TS 35 7 300
1869 NA NA 15:00:00 TS 19.90 -36.65 2034 2034 _____________P -1 19.90 -36.65 TS 35 8 301
1869 NA NA 18:00:00 TS 20.10 -37.00 2073 2073 _____________O -1 20.10 -37.00 TS 35 7 300
1869 NA NA 21:00:00 TS 20.25 -37.31 2103 2102 _____________P -1 20.25 -37.31 TS 35 6 298
1869 NA NA 1869-09-09 00:00:00 TS 20.40 -37.60 2132 2132 _____________O -1 20.40 -37.60 TS 35 7 302
1869 NA NA 03:00:00 TS 20.60 -37.90 2161 2161 _____________P -1 20.60 -37.90 TS 35 7 305
1869 NA NA 06:00:00 TS 20.80 -38.20 2191 2191 _____________O -1 20.80 -38.20 TS 35 7 302
1869 NA NA 09:00:00 TS 20.95 -38.50 2221 2221 _____________P -1 20.95 -38.50 TS 37 6 298
1869 NA NA 12:00:00 TS 21.10 -38.80 2251 2251 _____________O -1 21.10 -38.80 TS 40 7 302
1869 NA NA 15:00:00 TS 21.30 -39.10 2281 2281 _____________P -1 21.30 -39.10 TS 40 7 306
1869 NA NA 18:00:00 TS 21.50 -39.40 2311 2302 _____________O -1 21.50 -39.40 TS 40 7 302
1869 NA NA 21:00:00 TS 21.65 -39.71 2302 2298 _____________P -1 21.65 -39.71 TS 40 6 298
1869 NA NA 1869-09-10 00:00:00 TS 21.80 -40.00 2301 2294 _____________O -1 21.80 -40.00 TS 40 6 303
1869 NA NA 03:00:00 TS 21.99 -40.27 2300 2300 _____________P -1 21.99 -40.27 TS 42 6 311
1869 NA NA 06:00:00 TS 22.20 -40.50 2305 2302 _____________O -1 22.20 -40.50 TS 45 6 315
1869 NA NA 09:00:00 TS 22.39 -40.70 2311 2306 _____________P -1 22.39 -40.70 TS 45 5 317
1869 NA NA 12:00:00 TS 22.60 -40.90 2318 2318 _____________O -1 22.60 -40.90 TS 45 6 318
1869 NA NA 15:00:00 TS 22.85 -41.15 2334 2329 _____________P -1 22.85 -41.15 TS 45 7 317
1869 NA NA 18:00:00 TS 23.10 -41.40 2336 2335 _____________O -1 23.10 -41.40 TS 45 6 316
1869 NA NA 21:00:00 TS 23.29 -41.61 2344 2339 _____________P -1 23.29 -41.61 TS 47 5 318
1869 NA NA 1869-09-11 00:00:00 TS 23.50 -41.80 2352 2352 _____________O -1 23.50 -41.80 TS 50 6 324
1869 NA NA 03:00:00 TS 23.79 -42.01 2371 2371 _____________P -1 23.79 -42.01 TS 50 7 329
1869 NA NA 06:00:00 TS 24.10 -42.20 2390 2390 _____________O -1 24.10 -42.20 TS 50 7 330
1869 NA NA 09:00:00 TS 24.36 -42.37 2409 2409 _____________P -1 24.36 -42.37 TS 50 6 331
1869 NA NA 12:00:00 TS 24.60 -42.50 2424 2424 _____________O -1 24.60 -42.50 TS 50 5 335
1869 NA NA 15:00:00 TS 24.85 -42.62 2439 2439 _____________P -1 24.85 -42.62 TS 50 5 340
1869 NA NA 18:00:00 TS 25.10 -42.70 2463 2463 _____________O -1 25.10 -42.70 TS 50 5 345
1869 NA NA 21:00:00 TS 25.33 -42.75 2471 2471 _____________P -1 25.33 -42.75 TS 50 5 350
1869 NA NA 1869-09-12 00:00:00 TS 25.60 -42.80 2479 2467 _____________O -1 25.60 -42.80 TS 50 7 348
1869 NA NA 03:00:00 TS 25.99 -42.91 2467 2422 _____________P -1 25.99 -42.91 TS 50 8 347
1869 NA NA 06:00:00 TS 26.40 -43.00 2422 2390 _____________O -1 26.40 -43.00 TS 50 8 353
1869 NA NA 09:00:00 TS 26.75 -43.02 2390 2348 _____________P -1 26.75 -43.02 TS 52 7 0
1869 NA NA 12:00:00 TS 27.10 -43.00 2348 2306 _____________O -1 27.10 -43.00 TS 55 8 0
1869 NA NA 15:00:00 TS 27.50 -43.00 2306 2264 _____________P -1 27.50 -43.00 TS 55 8 1
1869 NA NA 18:00:00 TS 27.90 -43.00 2264 2233 _____________O -1 27.90 -43.00 TS 55 7 0
1869 NA NA 21:00:00 TS 28.24 -43.00 2233 2191 _____________P -1 28.24 -43.00 TS 57 7 0
1869 NA NA 1869-09-13 00:00:00 TS 28.60 -43.00 2191 2149 _____________O -1 28.60 -43.00 TS 60 8 0
1869 NA NA 03:00:00 TS 29.03 -43.01 2149 2097 _____________P -1 29.03 -43.01 TS 60 9 0
1869 NA NA 06:00:00 TS 29.50 -43.00 2097 2056 _____________O -1 29.50 -43.00 TS 60 9 4
1869 NA NA 09:00:00 TS 29.95 -42.95 2046 2008 _____________P -1 29.95 -42.95 TS 60 9 5
1869 NA NA 12:00:00 TS 30.40 -42.90 2008 1967 _____________O -1 30.40 -42.90 TS 60 9 2
1869 NA NA 15:00:00 TS 30.85 -42.90 1967 1917 _____________P -1 30.85 -42.90 TS 62 9 0
1869 NA NA 18:00:00 TS 31.30 -42.90 1917 1876 _____________O -1 31.30 -42.90 HU 65 9 0
1869 NA NA 21:00:00 TS 31.75 -42.87 1876 1830 _____________P -1 31.75 -42.87 HU 65 9 5
1869 NA NA 1869-09-14 00:00:00 TS 32.20 -42.80 1830 1794 _____________O -1 32.20 -42.80 HU 65 9 12
1869 NA NA 03:00:00 TS 32.65 -42.66 1784 1753 _____________P -1 32.65 -42.66 HU 65 9 16
1869 NA NA 06:00:00 TS 33.10 -42.50 1753 1718 _____________O -1 33.10 -42.50 HU 65 9 13
1869 NA NA 09:00:00 TS 33.56 -42.40 1708 1674 _____________P -1 33.56 -42.40 HU 65 9 10
1869 NA NA 12:00:00 TS 34.00 -42.30 1674 1640 _____________O -1 34.00 -42.30 HU 65 9 13
1869 NA NA 15:00:00 TS 34.41 -42.16 1640 1611 _____________P -1 34.41 -42.16 HU 65 8 17
1869 NA NA 18:00:00 TS 34.80 -42.00 1611 1579 _____________O -1 34.80 -42.00 HU 65 8 18
1869 NA NA 21:00:00 TS 35.19 -41.86 1579 1552 _____________P -1 35.19 -41.86 HU 65 8 17
1869 NA NA 1869-09-15 00:00:00 TS 35.60 -41.70 1552 1526 _____________O -1 35.60 -41.70 HU 65 9 19
1869 NA NA 03:00:00 TS 36.04 -41.51 1526 1492 _____________P -1 36.04 -41.51 HU 65 10 20
1869 NA NA 06:00:00 TS 36.50 -41.30 1492 1462 _____________O -1 36.50 -41.30 HU 65 10 19
1869 NA NA 09:00:00 TS 36.95 -41.11 1468 1436 _____________P -1 36.95 -41.11 HU 65 10 19
1869 NA NA 12:00:00 TS 37.40 -40.90 1436 1414 _____________O -1 37.40 -40.90 HU 65 10 24
1869 NA NA 15:00:00 TS 37.85 -40.61 1412 1398 _____________P -1 37.85 -40.61 HU 65 10 28
1869 NA NA 18:00:00 TS 38.30 -40.30 1398 1385 _____________O -1 38.30 -40.30 HU 65 10 29
1869 NA NA 21:00:00 TS 38.70 -40.01 1385 1366 _____________P -1 38.70 -40.01 HU 65 10 27
1869 NA NA 1869-09-16 00:00:00 TS 39.20 -39.70 1366 1327 _____________O -1 39.20 -39.70 HU 65 992 13 20
1869 NA NA 03:00:00 TS 39.90 -39.45 1327 1306 _____________P -1 39.90 -39.45 HU 65 16 20
1869 NA NA 06:00:00 TS 40.70 -39.00 1306 1300 _____________O -1 40.70 -39.00 HU 65 18 32
1869 NA NA 09:00:00 TS 41.45 -38.19 1318 1318 _____________P -1 41.45 -38.19 HU 65 21 45
1869 NA NA 12:00:00 TS 42.20 -37.00 1355 1355 _____________O -1 42.20 -37.00 HU 65 25 53
1869 NA NA 15:00:00 TS 42.95 -35.46 1420 1420 _____________P -1 42.95 -35.46 HU 62 28 58
1869 NA NA 18:00:00 TS 43.70 -33.70 1519 1519 _____________O -1 43.70 -33.70 TS 60 29 62
1869 NA NA 21:00:00 TS 44.35 -31.89 1629 1629 _____________P -1 44.35 -31.89 TS 57 29 59
1869 NA NA 1869-09-17 00:00:00 TS 45.20 -30.20 1619 1457 _____________O -1 45.20 -30.20 TS 55 31 44
1869 NA NA 03:00:00 TS 46.54 -28.83 1450 1299 _____________P -1 46.54 -28.83 TS 52 34 32
1869 NA NA 06:00:00 TS 48.10 -27.60 1288 1146 _____________O -1 48.10 -27.60 TS 50 35 29
1869 NA NA 09:00:00 TS 49.59 -26.34 1135 1012 _____________P -1 49.59 -26.34 TS 47 33 30
1869 NA NA 12:00:00 ET 51.00 -25.00 1003 _____________O -1 51.00 -25.00 EX 45 33 31